sensor_id;sensor_type;location;lat;lon;timestamp;P1;durP1;ratioP1;P2;durP2;ratioP2
85726;SDS011;76171;45.484;-73.496;2024-02-26T00:00:46;2.67;;;1.20;;
85726;SDS011;76171;45.484;-73.496;2024-02-26T00:03:15;5.85;;;1.90;;
85726;SDS011;76171;45.484;-73.496;2024-02-26T00:08:07;5.30;;;2.05;;
85726;SDS011;76171;45.484;-73.496;2024-02-26T00:10:33;6.38;;;2.00;;
85726;SDS011;76171;45.484;-73.496;2024-02-26T00:12:59;3.28;;;1.48;;
85726;SDS011;76171;45.484;-73.496;2024-02-26T00:15:27;4.35;;;1.73;;
85726;SDS011;76171;45.484;-73.496;2024-02-26T00:17:53;5.95;;;1.67;;
85726;SDS011;76171;45.484;-73.496;2024-02-26T00:20:19;4.07;;;1.02;;
85726;SDS011;76171;45.484;-73.496;2024-02-26T00:22:45;3.63;;;1.60;;
85726;SDS011;76171;45.484;-73.496;2024-02-26T00:25:11;7.93;;;1.65;;
85726;SDS011;76171;45.484;-73.496;2024-02-26T00:27:37;2.65;;;1.42;;
85726;SDS011;76171;45.484;-73.496;2024-02-26T00:30:05;3.17;;;1.27;;
85726;SDS011;76171;45.484;-73.496;2024-02-26T00:32:32;7.53;;;1.52;;
85726;SDS011;76171;45.484;-73.496;2024-02-26T00:34:58;4.05;;;1.90;;
85726;SDS011;76171;45.484;-73.496;2024-02-26T00:37:23;4.85;;;1.70;;
85726;SDS011;76171;45.484;-73.496;2024-02-26T00:39:49;3.08;;;1.73;;
85726;SDS011;76171;45.484;-73.496;2024-02-26T00:42:15;4.05;;;1.60;;
85726;SDS011;76171;45.484;-73.496;2024-02-26T00:44:41;3.28;;;1.40;;
85726;SDS011;76171;45.484;-73.496;2024-02-26T00:47:07;3.30;;;1.70;;
85726;SDS011;76171;45.484;-73.496;2024-02-26T00:49:33;6.63;;;2.30;;
85726;SDS011;76171;45.484;-73.496;2024-02-26T00:51:59;4.85;;;2.03;;
85726;SDS011;76171;45.484;-73.496;2024-02-26T00:54:25;3.55;;;1.73;;
85726;SDS011;76171;45.484;-73.496;2024-02-26T00:56:51;4.00;;;1.75;;
85726;SDS011;76171;45.484;-73.496;2024-02-26T00:59:19;3.45;;;1.60;;
85726;SDS011;76171;45.484;-73.496;2024-02-26T01:04:28;3.08;;;1.63;;
85726;SDS011;76171;45.484;-73.496;2024-02-26T01:06:54;4.38;;;1.52;;
85726;SDS011;76171;45.484;-73.496;2024-02-26T01:09:19;3.70;;;1.70;;
85726;SDS011;76171;45.484;-73.496;2024-02-26T01:11:45;3.40;;;1.48;;
85726;SDS011;76171;45.484;-73.496;2024-02-26T01:14:12;2.50;;;1.27;;
85726;SDS011;76171;45.484;-73.496;2024-02-26T01:16:38;2.78;;;1.40;;
85726;SDS011;76171;45.484;-73.496;2024-02-26T01:19:04;4.05;;;1.42;;
85726;SDS011;76171;45.484;-73.496;2024-02-26T01:21:30;5.18;;;1.20;;
85726;SDS011;76171;45.484;-73.496;2024-02-26T01:23:56;5.97;;;1.90;;
85726;SDS011;76171;45.484;-73.496;2024-02-26T01:26:22;4.60;;;1.10;;
85726;SDS011;76171;45.484;-73.496;2024-02-26T01:28:48;6.93;;;1.50;;
85726;SDS011;76171;45.484;-73.496;2024-02-26T01:31:14;2.22;;;1.30;;
85726;SDS011;76171;45.484;-73.496;2024-02-26T01:33:40;2.63;;;1.48;;
85726;SDS011;76171;45.484;-73.496;2024-02-26T01:36:06;3.00;;;1.35;;
85726;SDS011;76171;45.484;-73.496;2024-02-26T01:38:32;3.75;;;1.70;;
85726;SDS011;76171;45.484;-73.496;2024-02-26T01:40:58;4.38;;;1.48;;
85726;SDS011;76171;45.484;-73.496;2024-02-26T01:43:24;5.60;;;1.52;;
85726;SDS011;76171;45.484;-73.496;2024-02-26T01:45:50;6.25;;;1.67;;
85726;SDS011;76171;45.484;-73.496;2024-02-26T01:48:16;4.55;;;1.60;;
85726;SDS011;76171;45.484;-73.496;2024-02-26T01:50:43;8.25;;;2.78;;
85726;SDS011;76171;45.484;-73.496;2024-02-26T01:53:09;4.05;;;1.40;;
85726;SDS011;76171;45.484;-73.496;2024-02-26T01:55:35;3.45;;;1.50;;
85726;SDS011;76171;45.484;-73.496;2024-02-26T01:58:01;5.95;;;1.88;;
85726;SDS011;76171;45.484;-73.496;2024-02-26T02:00:28;3.72;;;1.38;;
85726;SDS011;76171;45.484;-73.496;2024-02-26T02:02:54;8.52;;;3.25;;
85726;SDS011;76171;45.484;-73.496;2024-02-26T02:05:21;5.07;;;1.40;;
85726;SDS011;76171;45.484;-73.496;2024-02-26T02:07:47;5.50;;;1.23;;
85726;SDS011;76171;45.484;-73.496;2024-02-26T02:10:15;3.40;;;1.40;;
85726;SDS011;76171;45.484;-73.496;2024-02-26T02:12:41;3.08;;;1.20;;
85726;SDS011;76171;45.484;-73.496;2024-02-26T02:15:07;4.18;;;1.67;;
85726;SDS011;76171;45.484;-73.496;2024-02-26T02:17:33;3.83;;;1.60;;
85726;SDS011;76171;45.484;-73.496;2024-02-26T02:20:02;5.93;;;1.40;;
85726;SDS011;76171;45.484;-73.496;2024-02-26T02:22:28;4.35;;;1.77;;
85726;SDS011;76171;45.484;-73.496;2024-02-26T02:27:22;3.47;;;1.10;;
85726;SDS011;76171;45.484;-73.496;2024-02-26T02:29:49;3.20;;;1.38;;
85726;SDS011;76171;45.484;-73.496;2024-02-26T02:32:14;2.55;;;1.33;;
85726;SDS011;76171;45.484;-73.496;2024-02-26T02:34:41;3.00;;;1.20;;
85726;SDS011;76171;45.484;-73.496;2024-02-26T02:37:07;2.67;;;1.27;;
85726;SDS011;76171;45.484;-73.496;2024-02-26T02:39:33;3.35;;;1.15;;
85726;SDS011;76171;45.484;-73.496;2024-02-26T02:42:02;3.05;;;1.50;;
85726;SDS011;76171;45.484;-73.496;2024-02-26T02:44:28;5.55;;;1.27;;
85726;SDS011;76171;45.484;-73.496;2024-02-26T02:46:54;2.15;;;1.02;;
85726;SDS011;76171;45.484;-73.496;2024-02-26T02:49:20;2.55;;;1.25;;
85726;SDS011;76171;45.484;-73.496;2024-02-26T02:51:48;2.25;;;1.20;;
85726;SDS011;76171;45.484;-73.496;2024-02-26T02:54:15;4.80;;;1.50;;
85726;SDS011;76171;45.484;-73.496;2024-02-26T02:56:41;3.10;;;1.48;;
85726;SDS011;76171;45.484;-73.496;2024-02-26T02:59:07;3.25;;;1.23;;
85726;SDS011;76171;45.484;-73.496;2024-02-26T03:01:32;3.13;;;1.42;;
85726;SDS011;76171;45.484;-73.496;2024-02-26T03:03:59;2.88;;;1.23;;
85726;SDS011;76171;45.484;-73.496;2024-02-26T03:06:25;5.80;;;1.58;;
85726;SDS011;76171;45.484;-73.496;2024-02-26T03:08:53;3.63;;;1.10;;
85726;SDS011;76171;45.484;-73.496;2024-02-26T03:11:19;2.58;;;1.00;;
85726;SDS011;76171;45.484;-73.496;2024-02-26T03:13:45;3.20;;;1.13;;
85726;SDS011;76171;45.484;-73.496;2024-02-26T03:16:11;3.55;;;1.30;;
85726;SDS011;76171;45.484;-73.496;2024-02-26T03:18:40;3.47;;;1.15;;
85726;SDS011;76171;45.484;-73.496;2024-02-26T03:21:06;1.67;;;1.02;;
85726;SDS011;76171;45.484;-73.496;2024-02-26T03:23:33;3.03;;;1.15;;
85726;SDS011;76171;45.484;-73.496;2024-02-26T03:26:04;2.60;;;1.08;;
85726;SDS011;76171;45.484;-73.496;2024-02-26T03:28:31;3.55;;;1.13;;
85726;SDS011;76171;45.484;-73.496;2024-02-26T03:31:01;3.75;;;1.08;;
85726;SDS011;76171;45.484;-73.496;2024-02-26T03:33:27;3.25;;;1.30;;
85726;SDS011;76171;45.484;-73.496;2024-02-26T03:35:53;3.55;;;1.33;;
85726;SDS011;76171;45.484;-73.496;2024-02-26T03:38:19;3.80;;;1.35;;
85726;SDS011;76171;45.484;-73.496;2024-02-26T03:40:45;3.22;;;1.40;;
85726;SDS011;76171;45.484;-73.496;2024-02-26T03:43:13;4.88;;;2.17;;
85726;SDS011;76171;45.484;-73.496;2024-02-26T03:45:39;2.90;;;1.20;;
85726;SDS011;76171;45.484;-73.496;2024-02-26T03:48:08;2.13;;;1.08;;
85726;SDS011;76171;45.484;-73.496;2024-02-26T03:50:34;8.02;;;0.98;;
85726;SDS011;76171;45.484;-73.496;2024-02-26T03:53:00;2.40;;;0.85;;
85726;SDS011;76171;45.484;-73.496;2024-02-26T03:55:29;2.40;;;0.70;;
85726;SDS011;76171;45.484;-73.496;2024-02-26T03:57:55;2.35;;;1.15;;
85726;SDS011;76171;45.484;-73.496;2024-02-26T04:00:21;2.65;;;0.95;;
85726;SDS011;76171;45.484;-73.496;2024-02-26T04:02:47;3.08;;;0.90;;
85726;SDS011;76171;45.484;-73.496;2024-02-26T04:05:14;3.30;;;1.42;;
85726;SDS011;76171;45.484;-73.496;2024-02-26T04:07:42;3.22;;;0.98;;
85726;SDS011;76171;45.484;-73.496;2024-02-26T04:10:11;2.20;;;1.02;;
85726;SDS011;76171;45.484;-73.496;2024-02-26T04:12:41;2.70;;;1.30;;
85726;SDS011;76171;45.484;-73.496;2024-02-26T04:15:08;2.28;;;1.20;;
85726;SDS011;76171;45.484;-73.496;2024-02-26T04:17:35;3.92;;;1.02;;
85726;SDS011;76171;45.484;-73.496;2024-02-26T04:20:02;4.45;;;1.33;;
85726;SDS011;76171;45.484;-73.496;2024-02-26T04:22:29;4.40;;;1.20;;
85726;SDS011;76171;45.484;-73.496;2024-02-26T04:24:55;5.53;;;1.05;;
85726;SDS011;76171;45.484;-73.496;2024-02-26T04:27:21;4.28;;;1.30;;
85726;SDS011;76171;45.484;-73.496;2024-02-26T04:29:47;3.70;;;1.38;;
85726;SDS011;76171;45.484;-73.496;2024-02-26T04:32:13;5.38;;;1.33;;
85726;SDS011;76171;45.484;-73.496;2024-02-26T04:34:39;2.28;;;1.10;;
85726;SDS011;76171;45.484;-73.496;2024-02-26T04:37:05;3.50;;;1.42;;
85726;SDS011;76171;45.484;-73.496;2024-02-26T04:39:31;2.72;;;0.95;;
85726;SDS011;76171;45.484;-73.496;2024-02-26T04:41:57;2.40;;;1.15;;
85726;SDS011;76171;45.484;-73.496;2024-02-26T04:44:23;4.43;;;1.42;;
85726;SDS011;76171;45.484;-73.496;2024-02-26T04:46:49;2.67;;;1.20;;
85726;SDS011;76171;45.484;-73.496;2024-02-26T04:49:15;3.53;;;1.25;;
85726;SDS011;76171;45.484;-73.496;2024-02-26T04:51:41;3.05;;;1.42;;
85726;SDS011;76171;45.484;-73.496;2024-02-26T04:54:09;3.00;;;1.30;;
85726;SDS011;76171;45.484;-73.496;2024-02-26T04:59:01;3.22;;;1.70;;
85726;SDS011;76171;45.484;-73.496;2024-02-26T05:01:27;4.13;;;1.88;;
85726;SDS011;76171;45.484;-73.496;2024-02-26T05:03:53;5.35;;;2.20;;
85726;SDS011;76171;45.484;-73.496;2024-02-26T05:06:19;4.05;;;1.67;;
85726;SDS011;76171;45.484;-73.496;2024-02-26T05:08:45;3.90;;;1.17;;
85726;SDS011;76171;45.484;-73.496;2024-02-26T05:11:12;4.78;;;1.42;;
85726;SDS011;76171;45.484;-73.496;2024-02-26T05:13:38;2.88;;;1.45;;
85726;SDS011;76171;45.484;-73.496;2024-02-26T05:16:03;5.57;;;0.90;;
85726;SDS011;76171;45.484;-73.496;2024-02-26T05:18:30;3.78;;;1.30;;
85726;SDS011;76171;45.484;-73.496;2024-02-26T05:20:56;2.42;;;1.10;;
85726;SDS011;76171;45.484;-73.496;2024-02-26T05:23:22;2.90;;;1.40;;
85726;SDS011;76171;45.484;-73.496;2024-02-26T05:25:48;2.42;;;1.20;;
85726;SDS011;76171;45.484;-73.496;2024-02-26T05:28:14;5.18;;;1.13;;
85726;SDS011;76171;45.484;-73.496;2024-02-26T05:30:45;4.25;;;1.10;;
85726;SDS011;76171;45.484;-73.496;2024-02-26T05:33:12;2.90;;;1.27;;
85726;SDS011;76171;45.484;-73.496;2024-02-26T05:35:38;3.17;;;1.02;;
85726;SDS011;76171;45.484;-73.496;2024-02-26T05:38:04;2.58;;;1.10;;
85726;SDS011;76171;45.484;-73.496;2024-02-26T05:40:30;1.85;;;0.82;;
85726;SDS011;76171;45.484;-73.496;2024-02-26T05:42:56;2.45;;;1.20;;
85726;SDS011;76171;45.484;-73.496;2024-02-26T05:45:23;3.13;;;1.10;;
85726;SDS011;76171;45.484;-73.496;2024-02-26T05:47:50;1.23;;;0.52;;
85726;SDS011;76171;45.484;-73.496;2024-02-26T05:50:16;1.80;;;0.80;;
85726;SDS011;76171;45.484;-73.496;2024-02-26T05:52:42;3.08;;;1.00;;
85726;SDS011;76171;45.484;-73.496;2024-02-26T05:55:09;1.88;;;1.15;;
85726;SDS011;76171;45.484;-73.496;2024-02-26T05:57:35;2.13;;;0.85;;
85726;SDS011;76171;45.484;-73.496;2024-02-26T06:00:05;2.17;;;0.77;;
85726;SDS011;76171;45.484;-73.496;2024-02-26T06:02:38;2.67;;;1.20;;
85726;SDS011;76171;45.484;-73.496;2024-02-26T06:05:08;2.45;;;1.10;;
85726;SDS011;76171;45.484;-73.496;2024-02-26T06:07:36;2.70;;;0.98;;
85726;SDS011;76171;45.484;-73.496;2024-02-26T06:10:14;3.38;;;0.68;;
85726;SDS011;76171;45.484;-73.496;2024-02-26T06:12:48;1.63;;;0.95;;
85726;SDS011;76171;45.484;-73.496;2024-02-26T06:15:14;2.25;;;1.00;;
85726;SDS011;76171;45.484;-73.496;2024-02-26T06:17:41;2.45;;;1.05;;
85726;SDS011;76171;45.484;-73.496;2024-02-26T06:20:12;2.70;;;1.23;;
85726;SDS011;76171;45.484;-73.496;2024-02-26T06:22:47;3.13;;;1.52;;
85726;SDS011;76171;45.484;-73.496;2024-02-26T06:25:16;1.60;;;0.70;;
85726;SDS011;76171;45.484;-73.496;2024-02-26T06:27:43;3.10;;;1.10;;
85726;SDS011;76171;45.484;-73.496;2024-02-26T06:30:09;2.67;;;1.25;;
85726;SDS011;76171;45.484;-73.496;2024-02-26T06:32:37;1.92;;;0.93;;
85726;SDS011;76171;45.484;-73.496;2024-02-26T06:35:03;2.95;;;1.10;;
85726;SDS011;76171;45.484;-73.496;2024-02-26T06:37:34;3.40;;;1.00;;
85726;SDS011;76171;45.484;-73.496;2024-02-26T06:40:00;1.55;;;0.88;;
85726;SDS011;76171;45.484;-73.496;2024-02-26T06:42:29;2.63;;;0.95;;
85726;SDS011;76171;45.484;-73.496;2024-02-26T06:44:56;1.65;;;0.90;;
85726;SDS011;76171;45.484;-73.496;2024-02-26T06:47:22;4.45;;;1.23;;
85726;SDS011;76171;45.484;-73.496;2024-02-26T06:49:48;2.45;;;1.40;;
85726;SDS011;76171;45.484;-73.496;2024-02-26T06:52:14;1.85;;;1.20;;
85726;SDS011;76171;45.484;-73.496;2024-02-26T06:54:42;1.70;;;0.73;;
85726;SDS011;76171;45.484;-73.496;2024-02-26T06:57:08;2.03;;;1.00;;
85726;SDS011;76171;45.484;-73.496;2024-02-26T07:02:02;2.95;;;1.15;;
85726;SDS011;76171;45.484;-73.496;2024-02-26T07:04:28;2.33;;;0.93;;
85726;SDS011;76171;45.484;-73.496;2024-02-26T07:06:56;6.25;;;1.00;;
85726;SDS011;76171;45.484;-73.496;2024-02-26T07:09:22;1.45;;;0.82;;
85726;SDS011;76171;45.484;-73.496;2024-02-26T07:11:48;2.15;;;1.15;;
85726;SDS011;76171;45.484;-73.496;2024-02-26T07:14:14;2.28;;;0.90;;
85726;SDS011;76171;45.484;-73.496;2024-02-26T07:16:40;2.60;;;1.13;;
85726;SDS011;76171;45.484;-73.496;2024-02-26T07:19:06;2.10;;;0.68;;
85726;SDS011;76171;45.484;-73.496;2024-02-26T07:21:32;3.90;;;1.25;;
85726;SDS011;76171;45.484;-73.496;2024-02-26T07:23:59;3.90;;;1.02;;
85726;SDS011;76171;45.484;-73.496;2024-02-26T07:26:24;2.17;;;0.90;;
85726;SDS011;76171;45.484;-73.496;2024-02-26T07:28:51;2.97;;;1.10;;
85726;SDS011;76171;45.484;-73.496;2024-02-26T07:31:17;3.97;;;1.05;;
85726;SDS011;76171;45.484;-73.496;2024-02-26T07:33:43;1.35;;;0.80;;
85726;SDS011;76171;45.484;-73.496;2024-02-26T07:36:09;2.30;;;0.98;;
85726;SDS011;76171;45.484;-73.496;2024-02-26T07:38:38;1.92;;;0.93;;
85726;SDS011;76171;45.484;-73.496;2024-02-26T07:41:04;3.15;;;1.35;;
85726;SDS011;76171;45.484;-73.496;2024-02-26T07:43:30;2.58;;;1.27;;
85726;SDS011;76171;45.484;-73.496;2024-02-26T07:45:57;2.00;;;1.17;;
85726;SDS011;76171;45.484;-73.496;2024-02-26T07:48:23;2.70;;;1.30;;
85726;SDS011;76171;45.484;-73.496;2024-02-26T07:50:49;1.60;;;0.90;;
85726;SDS011;76171;45.484;-73.496;2024-02-26T07:53:15;2.78;;;1.10;;
85726;SDS011;76171;45.484;-73.496;2024-02-26T07:55:41;2.33;;;0.90;;
85726;SDS011;76171;45.484;-73.496;2024-02-26T07:58:07;3.13;;;1.35;;
85726;SDS011;76171;45.484;-73.496;2024-02-26T08:00:33;2.55;;;1.38;;
85726;SDS011;76171;45.484;-73.496;2024-02-26T08:02:59;4.38;;;1.23;;
85726;SDS011;76171;45.484;-73.496;2024-02-26T08:05:25;4.47;;;1.67;;
85726;SDS011;76171;45.484;-73.496;2024-02-26T08:07:51;4.90;;;1.67;;
85726;SDS011;76171;45.484;-73.496;2024-02-26T08:10:17;3.30;;;1.45;;
85726;SDS011;76171;45.484;-73.496;2024-02-26T08:12:43;3.35;;;1.40;;
85726;SDS011;76171;45.484;-73.496;2024-02-26T08:15:10;5.90;;;1.60;;
85726;SDS011;76171;45.484;-73.496;2024-02-26T08:17:36;2.60;;;1.50;;
85726;SDS011;76171;45.484;-73.496;2024-02-26T08:20:03;3.15;;;1.00;;
85726;SDS011;76171;45.484;-73.496;2024-02-26T08:22:30;1.55;;;1.02;;
85726;SDS011;76171;45.484;-73.496;2024-02-26T08:24:56;2.70;;;1.05;;
85726;SDS011;76171;45.484;-73.496;2024-02-26T08:27:21;1.20;;;0.77;;
85726;SDS011;76171;45.484;-73.496;2024-02-26T08:29:47;1.13;;;0.70;;
85726;SDS011;76171;45.484;-73.496;2024-02-26T08:32:13;2.17;;;0.93;;
85726;SDS011;76171;45.484;-73.496;2024-02-26T08:34:39;2.72;;;0.90;;
85726;SDS011;76171;45.484;-73.496;2024-02-26T08:37:05;1.95;;;1.00;;
85726;SDS011;76171;45.484;-73.496;2024-02-26T08:39:34;3.38;;;1.30;;
85726;SDS011;76171;45.484;-73.496;2024-02-26T08:42:00;1.70;;;0.90;;
85726;SDS011;76171;45.484;-73.496;2024-02-26T08:44:26;2.13;;;0.70;;
85726;SDS011;76171;45.484;-73.496;2024-02-26T08:46:52;2.28;;;0.95;;
85726;SDS011;76171;45.484;-73.496;2024-02-26T08:49:18;2.55;;;1.20;;
85726;SDS011;76171;45.484;-73.496;2024-02-26T08:51:44;2.30;;;1.00;;
85726;SDS011;76171;45.484;-73.496;2024-02-26T08:54:10;2.70;;;1.00;;
85726;SDS011;76171;45.484;-73.496;2024-02-26T08:56:36;2.33;;;1.05;;
85726;SDS011;76171;45.484;-73.496;2024-02-26T08:59:02;3.25;;;1.30;;
85726;SDS011;76171;45.484;-73.496;2024-02-26T09:01:29;2.10;;;0.90;;
85726;SDS011;76171;45.484;-73.496;2024-02-26T09:03:56;2.30;;;1.13;;
85726;SDS011;76171;45.484;-73.496;2024-02-26T09:06:24;3.28;;;0.93;;
85726;SDS011;76171;45.484;-73.496;2024-02-26T09:08:51;4.63;;;1.10;;
85726;SDS011;76171;45.484;-73.496;2024-02-26T09:11:17;4.20;;;1.10;;
85726;SDS011;76171;45.484;-73.496;2024-02-26T09:13:43;1.48;;;0.82;;
85726;SDS011;76171;45.484;-73.496;2024-02-26T09:16:11;3.72;;;1.30;;
85726;SDS011;76171;45.484;-73.496;2024-02-26T09:18:39;5.78;;;1.40;;
85726;SDS011;76171;45.484;-73.496;2024-02-26T09:21:05;6.32;;;1.38;;
85726;SDS011;76171;45.484;-73.496;2024-02-26T09:23:31;6.22;;;1.60;;
85726;SDS011;76171;45.484;-73.496;2024-02-26T09:25:58;4.57;;;0.98;;
85726;SDS011;76171;45.484;-73.496;2024-02-26T09:28:27;2.75;;;1.02;;
85726;SDS011;76171;45.484;-73.496;2024-02-26T09:30:56;4.00;;;0.90;;
85726;SDS011;76171;45.484;-73.496;2024-02-26T09:33:24;4.78;;;1.20;;
85726;SDS011;76171;45.484;-73.496;2024-02-26T09:35:50;4.13;;;1.35;;
85726;SDS011;76171;45.484;-73.496;2024-02-26T09:38:16;5.15;;;1.35;;
85726;SDS011;76171;45.484;-73.496;2024-02-26T09:40:42;1.67;;;0.95;;
85726;SDS011;76171;45.484;-73.496;2024-02-26T09:43:08;8.45;;;1.00;;
85726;SDS011;76171;45.484;-73.496;2024-02-26T09:45:36;4.32;;;1.40;;
85726;SDS011;76171;45.484;-73.496;2024-02-26T09:48:02;2.88;;;1.17;;
85726;SDS011;76171;45.484;-73.496;2024-02-26T09:50:33;5.65;;;1.08;;
85726;SDS011;76171;45.484;-73.496;2024-02-26T09:52:59;2.55;;;1.00;;
85726;SDS011;76171;45.484;-73.496;2024-02-26T09:55:27;3.53;;;1.02;;
85726;SDS011;76171;45.484;-73.496;2024-02-26T09:57:54;3.58;;;1.20;;
85726;SDS011;76171;45.484;-73.496;2024-02-26T10:00:21;2.83;;;1.10;;
85726;SDS011;76171;45.484;-73.496;2024-02-26T10:02:48;3.50;;;1.25;;
85726;SDS011;76171;45.484;-73.496;2024-02-26T10:05:17;3.42;;;1.13;;
85726;SDS011;76171;45.484;-73.496;2024-02-26T10:07:46;3.33;;;1.13;;
85726;SDS011;76171;45.484;-73.496;2024-02-26T10:10:14;2.90;;;1.00;;
85726;SDS011;76171;45.484;-73.496;2024-02-26T10:12:40;2.38;;;1.10;;
85726;SDS011;76171;45.484;-73.496;2024-02-26T10:15:07;2.63;;;1.20;;
85726;SDS011;76171;45.484;-73.496;2024-02-26T10:17:33;3.85;;;1.10;;
85726;SDS011;76171;45.484;-73.496;2024-02-26T10:20:13;2.72;;;1.15;;
85726;SDS011;76171;45.484;-73.496;2024-02-26T10:22:41;5.30;;;1.40;;
85726;SDS011;76171;45.484;-73.496;2024-02-26T10:25:08;4.78;;;1.65;;
85726;SDS011;76171;45.484;-73.496;2024-02-26T10:27:34;2.70;;;1.30;;
85726;SDS011;76171;45.484;-73.496;2024-02-26T10:30:04;4.07;;;1.75;;
85726;SDS011;76171;45.484;-73.496;2024-02-26T10:32:42;3.45;;;1.80;;
85726;SDS011;76171;45.484;-73.496;2024-02-26T10:35:08;3.78;;;1.40;;
85726;SDS011;76171;45.484;-73.496;2024-02-26T10:37:34;3.08;;;1.73;;
85726;SDS011;76171;45.484;-73.496;2024-02-26T10:40:01;2.35;;;1.33;;
85726;SDS011;76171;45.484;-73.496;2024-02-26T10:42:28;2.85;;;1.33;;
85726;SDS011;76171;45.484;-73.496;2024-02-26T10:44:58;4.18;;;1.20;;
85726;SDS011;76171;45.484;-73.496;2024-02-26T10:49:52;2.22;;;1.20;;
85726;SDS011;76171;45.484;-73.496;2024-02-26T10:52:18;3.35;;;1.40;;
85726;SDS011;76171;45.484;-73.496;2024-02-26T10:54:46;1.85;;;1.10;;
85726;SDS011;76171;45.484;-73.496;2024-02-26T10:57:14;4.40;;;1.45;;
85726;SDS011;76171;45.484;-73.496;2024-02-26T10:59:42;2.20;;;1.10;;
85726;SDS011;76171;45.484;-73.496;2024-02-26T11:02:09;3.65;;;1.30;;
85726;SDS011;76171;45.484;-73.496;2024-02-26T11:04:38;2.17;;;1.05;;
85726;SDS011;76171;45.484;-73.496;2024-02-26T11:07:08;2.45;;;1.30;;
85726;SDS011;76171;45.484;-73.496;2024-02-26T11:09:35;2.78;;;1.15;;
85726;SDS011;76171;45.484;-73.496;2024-02-26T11:12:11;2.97;;;1.00;;
85726;SDS011;76171;45.484;-73.496;2024-02-26T11:14:41;2.80;;;1.15;;
85726;SDS011;76171;45.484;-73.496;2024-02-26T11:17:08;2.33;;;1.17;;
85726;SDS011;76171;45.484;-73.496;2024-02-26T11:19:35;3.55;;;1.30;;
85726;SDS011;76171;45.484;-73.496;2024-02-26T11:22:06;4.88;;;1.17;;
85726;SDS011;76171;45.484;-73.496;2024-02-26T11:24:33;3.60;;;1.25;;
85726;SDS011;76171;45.484;-73.496;2024-02-26T11:27:00;2.40;;;1.15;;
85726;SDS011;76171;45.484;-73.496;2024-02-26T11:29:29;2.58;;;1.17;;
85726;SDS011;76171;45.484;-73.496;2024-02-26T11:32:01;3.42;;;1.50;;
85726;SDS011;76171;45.484;-73.496;2024-02-26T11:34:27;3.33;;;1.27;;
85726;SDS011;76171;45.484;-73.496;2024-02-26T11:36:54;1.80;;;1.02;;
85726;SDS011;76171;45.484;-73.496;2024-02-26T11:39:23;2.83;;;1.40;;
85726;SDS011;76171;45.484;-73.496;2024-02-26T11:41:50;5.10;;;1.35;;
85726;SDS011;76171;45.484;-73.496;2024-02-26T11:44:28;5.55;;;1.25;;
85726;SDS011;76171;45.484;-73.496;2024-02-26T11:46:55;2.95;;;1.27;;
85726;SDS011;76171;45.484;-73.496;2024-02-26T11:51:54;2.90;;;1.40;;
85726;SDS011;76171;45.484;-73.496;2024-02-26T11:54:39;6.90;;;1.75;;
85726;SDS011;76171;45.484;-73.496;2024-02-26T11:57:23;3.47;;;1.70;;
85726;SDS011;76171;45.484;-73.496;2024-02-26T12:00:03;3.15;;;1.60;;
85726;SDS011;76171;45.484;-73.496;2024-02-26T12:02:49;3.13;;;1.40;;
85726;SDS011;76171;45.484;-73.496;2024-02-26T12:05:23;4.82;;;1.70;;
85726;SDS011;76171;45.484;-73.496;2024-02-26T12:07:59;3.50;;;1.42;;
85726;SDS011;76171;45.484;-73.496;2024-02-26T12:10:32;3.80;;;1.35;;
85726;SDS011;76171;45.484;-73.496;2024-02-26T12:13:02;4.55;;;1.63;;
85726;SDS011;76171;45.484;-73.496;2024-02-26T12:18:18;3.70;;;1.60;;
85726;SDS011;76171;45.484;-73.496;2024-02-26T12:20:45;6.22;;;1.98;;
85726;SDS011;76171;45.484;-73.496;2024-02-26T12:23:16;4.90;;;1.63;;
85726;SDS011;76171;45.484;-73.496;2024-02-26T12:25:45;5.47;;;2.13;;
85726;SDS011;76171;45.484;-73.496;2024-02-26T12:28:15;6.00;;;1.88;;
85726;SDS011;76171;45.484;-73.496;2024-02-26T12:30:43;3.78;;;1.83;;
85726;SDS011;76171;45.484;-73.496;2024-02-26T12:33:11;3.78;;;1.50;;
85726;SDS011;76171;45.484;-73.496;2024-02-26T12:35:37;6.40;;;2.00;;
85726;SDS011;76171;45.484;-73.496;2024-02-26T12:38:03;2.70;;;1.52;;
85726;SDS011;76171;45.484;-73.496;2024-02-26T12:40:32;4.10;;;1.60;;
85726;SDS011;76171;45.484;-73.496;2024-02-26T12:42:59;4.43;;;1.50;;
85726;SDS011;76171;45.484;-73.496;2024-02-26T12:45:25;3.35;;;1.65;;
85726;SDS011;76171;45.484;-73.496;2024-02-26T12:47:53;5.03;;;1.33;;
85726;SDS011;76171;45.484;-73.496;2024-02-26T12:50:23;7.90;;;1.92;;
85726;SDS011;76171;45.484;-73.496;2024-02-26T12:52:50;5.03;;;1.95;;
85726;SDS011;76171;45.484;-73.496;2024-02-26T12:55:20;4.45;;;2.00;;
85726;SDS011;76171;45.484;-73.496;2024-02-26T12:57:46;3.72;;;1.65;;
85726;SDS011;76171;45.484;-73.496;2024-02-26T13:00:20;5.10;;;1.42;;
85726;SDS011;76171;45.484;-73.496;2024-02-26T13:02:48;3.33;;;1.40;;
85726;SDS011;76171;45.484;-73.496;2024-02-26T13:05:15;3.80;;;1.75;;
85726;SDS011;76171;45.484;-73.496;2024-02-26T13:07:46;5.32;;;1.55;;
85726;SDS011;76171;45.484;-73.496;2024-02-26T13:10:13;3.38;;;1.60;;
85726;SDS011;76171;45.484;-73.496;2024-02-26T13:12:43;10.98;;;1.73;;
85726;SDS011;76171;45.484;-73.496;2024-02-26T13:15:13;4.07;;;1.75;;
85726;SDS011;76171;45.484;-73.496;2024-02-26T13:17:46;4.72;;;1.80;;
85726;SDS011;76171;45.484;-73.496;2024-02-26T13:20:25;4.90;;;1.40;;
85726;SDS011;76171;45.484;-73.496;2024-02-26T13:23:04;5.32;;;1.60;;
85726;SDS011;76171;45.484;-73.496;2024-02-26T13:25:31;8.63;;;1.85;;
85726;SDS011;76171;45.484;-73.496;2024-02-26T13:28:16;4.50;;;1.92;;
85726;SDS011;76171;45.484;-73.496;2024-02-26T13:30:56;4.45;;;1.50;;
85726;SDS011;76171;45.484;-73.496;2024-02-26T13:33:23;4.80;;;1.40;;
85726;SDS011;76171;45.484;-73.496;2024-02-26T13:35:51;4.00;;;1.65;;
85726;SDS011;76171;45.484;-73.496;2024-02-26T13:38:18;6.75;;;1.77;;
85726;SDS011;76171;45.484;-73.496;2024-02-26T13:40:44;4.70;;;1.80;;
85726;SDS011;76171;45.484;-73.496;2024-02-26T13:43:10;4.40;;;2.10;;
85726;SDS011;76171;45.484;-73.496;2024-02-26T13:45:37;4.18;;;1.70;;
85726;SDS011;76171;45.484;-73.496;2024-02-26T13:48:04;7.20;;;2.38;;
85726;SDS011;76171;45.484;-73.496;2024-02-26T13:50:39;6.18;;;2.38;;
85726;SDS011;76171;45.484;-73.496;2024-02-26T13:53:13;4.88;;;2.17;;
85726;SDS011;76171;45.484;-73.496;2024-02-26T13:55:52;5.25;;;2.35;;
85726;SDS011;76171;45.484;-73.496;2024-02-26T13:58:26;3.53;;;1.83;;
85726;SDS011;76171;45.484;-73.496;2024-02-26T14:01:04;6.85;;;2.65;;
85726;SDS011;76171;45.484;-73.496;2024-02-26T14:03:31;5.03;;;2.40;;
85726;SDS011;76171;45.484;-73.496;2024-02-26T14:05:57;7.63;;;3.25;;
85726;SDS011;76171;45.484;-73.496;2024-02-26T14:08:23;11.82;;;2.92;;
85726;SDS011;76171;45.484;-73.496;2024-02-26T14:10:50;4.03;;;2.35;;
85726;SDS011;76171;45.484;-73.496;2024-02-26T14:13:16;6.72;;;3.80;;
85726;SDS011;76171;45.484;-73.496;2024-02-26T14:15:43;8.05;;;3.30;;
85726;SDS011;76171;45.484;-73.496;2024-02-26T14:18:10;7.30;;;3.65;;
85726;SDS011;76171;45.484;-73.496;2024-02-26T14:20:36;7.10;;;3.03;;
85726;SDS011;76171;45.484;-73.496;2024-02-26T14:23:02;6.32;;;3.60;;
85726;SDS011;76171;45.484;-73.496;2024-02-26T14:25:29;6.30;;;3.33;;
85726;SDS011;76171;45.484;-73.496;2024-02-26T14:27:58;8.63;;;3.10;;
85726;SDS011;76171;45.484;-73.496;2024-02-26T14:30:25;6.95;;;3.50;;
85726;SDS011;76171;45.484;-73.496;2024-02-26T14:32:54;7.40;;;3.17;;
85726;SDS011;76171;45.484;-73.496;2024-02-26T14:35:20;7.45;;;3.63;;
85726;SDS011;76171;45.484;-73.496;2024-02-26T14:37:49;7.03;;;3.20;;
85726;SDS011;76171;45.484;-73.496;2024-02-26T14:40:17;6.65;;;3.25;;
85726;SDS011;76171;45.484;-73.496;2024-02-26T14:42:44;9.35;;;3.45;;